createdAt,value
2022-07-27T00:02:08.761Z,99933.91
2022-07-27T00:04:37.772Z,99936.41
2022-07-27T00:07:06.109Z,99939.66
2022-07-27T00:09:33.786Z,99943.31
2022-07-27T00:12:01.583Z,99956.63
2022-07-27T00:14:29.266Z,99949.88
2022-07-27T00:16:56.873Z,99956.19
2022-07-27T00:19:24.671Z,99957.94
2022-07-27T00:21:54.421Z,99944.25
2022-07-27T00:24:22.060Z,99954.81
2022-07-27T00:26:49.817Z,99952.34
2022-07-27T00:29:17.511Z,99955.00
2022-07-27T00:31:45.258Z,99958.44
2022-07-27T00:34:12.890Z,99962.84
2022-07-27T00:36:40.612Z,99967.31
2022-07-27T00:39:09.907Z,99964.00
2022-07-27T00:41:37.804Z,99962.44
2022-07-27T00:44:06.786Z,99953.81
2022-07-27T00:46:35.929Z,99965.81
2022-07-27T00:49:03.610Z,99963.31
2022-07-27T00:51:33.276Z,99965.16
2022-07-27T00:54:00.973Z,99960.78
2022-07-27T00:56:30.041Z,99957.16
2022-07-27T00:58:58.240Z,99960.59
2022-07-27T01:01:26.070Z,99956.28
2022-07-27T01:03:53.746Z,99950.22
2022-07-27T01:06:27.005Z,99950.22
2022-07-27T01:09:15.823Z,99946.88
2022-07-27T01:11:45.109Z,99950.97
2022-07-27T01:14:14.116Z,99957.00
2022-07-27T01:16:42.241Z,99950.91
2022-07-27T01:19:11.458Z,99954.41
2022-07-27T01:21:40.623Z,99951.69
2022-07-27T01:24:08.896Z,99942.91
2022-07-27T01:26:37.141Z,99942.75
2022-07-27T01:29:05.525Z,99935.63
2022-07-27T01:31:33.267Z,99932.94
2022-07-27T01:34:01.598Z,99935.53
2022-07-27T01:36:29.261Z,99924.09
2022-07-27T01:38:58.302Z,99924.97
2022-07-27T01:41:26.535Z,99923.19
2022-07-27T01:43:54.227Z,99921.56
2022-07-27T01:46:21.932Z,99921.66
2022-07-27T01:48:49.703Z,99930.41
2022-07-27T01:51:17.386Z,99918.34
2022-07-27T01:53:45.050Z,99920.13
2022-07-27T01:56:14.610Z,99923.59
2022-07-27T01:58:43.568Z,99925.47
2022-07-27T02:01:11.682Z,99923.78
2022-07-27T02:03:39.841Z,99921.25
2022-07-27T02:06:07.590Z,99912.75
2022-07-27T02:08:37.010Z,99915.38
2022-07-27T02:11:22.166Z,99918.88
2022-07-27T02:13:51.205Z,99918.81
2022-07-27T02:16:19.797Z,99910.88
2022-07-27T02:18:48.738Z,99914.31
2022-07-27T02:21:16.827Z,99905.59
2022-07-27T02:23:46.780Z,99910.75
2022-07-27T02:26:14.485Z,99901.19
2022-07-27T02:28:42.334Z,99902.88
2022-07-27T02:31:11.371Z,99908.97
2022-07-27T02:33:39.038Z,99908.88
2022-07-27T02:36:06.816Z,99911.41
2022-07-27T02:38:34.503Z,99915.72
2022-07-27T02:41:02.130Z,99920.19
2022-07-27T02:43:31.801Z,99913.56
2022-07-27T02:45:59.585Z,99921.56
2022-07-27T02:48:28.626Z,99913.75
2022-07-27T02:51:01.216Z,99909.41
2022-07-27T02:53:29.261Z,99908.56
2022-07-27T02:55:57.417Z,99907.72
2022-07-27T02:58:25.361Z,99906.84
2022-07-27T03:00:58.179Z,99903.22
2022-07-27T03:03:35.961Z,99899.69
2022-07-27T03:06:06.598Z,99909.97
2022-07-27T03:08:34.342Z,99913.38
2022-07-27T03:11:02.176Z,99906.44
2022-07-27T03:13:29.937Z,99913.56
2022-07-27T03:15:58.263Z,99911.94
2022-07-27T03:18:26.209Z,99918.16
2022-07-27T03:20:54.070Z,99916.47
2022-07-27T03:23:24.215Z,99920.94
2022-07-27T03:25:51.914Z,99926.38
2022-07-27T03:28:19.529Z,99925.56
2022-07-27T03:30:47.445Z,99931.75
2022-07-27T03:33:15.150Z,99929.38
2022-07-27T03:35:42.778Z,99926.94
2022-07-27T03:38:11.478Z,99934.69
2022-07-27T03:40:40.794Z,99931.25
2022-07-27T03:43:08.660Z,99936.38
2022-07-27T03:45:36.647Z,99931.94
2022-07-27T03:48:04.441Z,99931.88
2022-07-27T03:50:32.106Z,99936.94
2022-07-27T03:52:59.740Z,99940.41
2022-07-27T03:55:27.580Z,99945.81
2022-07-27T03:57:56.596Z,99950.22
2022-07-27T04:00:24.586Z,99944.91
2022-07-27T04:02:52.774Z,99945.84
2022-07-27T04:05:21.676Z,99946.72
2022-07-27T04:07:54.692Z,99944.19
2022-07-27T04:10:22.757Z,99940.75
2022-07-27T04:12:50.545Z,99944.34
2022-07-27T04:15:21.320Z,99942.59
2022-07-27T04:17:56.035Z,99948.63
2022-07-27T04:20:25.258Z,99951.22
2022-07-27T04:22:52.904Z,99944.28
2022-07-27T04:25:20.568Z,99940.78
2022-07-27T04:27:48.340Z,99946.88
2022-07-27T04:30:16.012Z,99948.63
2022-07-27T04:32:44.927Z,99944.19
2022-07-27T04:35:12.988Z,99938.09
2022-07-27T04:37:40.675Z,99944.09
2022-07-27T04:40:25.680Z,99937.09
2022-07-27T04:42:53.257Z,99942.25
2022-07-27T04:45:21.137Z,99950.13
2022-07-27T04:47:50.069Z,99953.72
2022-07-27T04:50:17.744Z,99957.19
2022-07-27T04:52:45.658Z,99953.69
2022-07-27T04:55:13.385Z,99955.38
2022-07-27T04:57:41.869Z,99952.78
2022-07-27T05:00:11.301Z,99959.78
2022-07-27T05:02:40.417Z,99959.75
2022-07-27T05:05:10.191Z,99961.56
2022-07-27T05:07:37.769Z,99958.06
2022-07-27T05:10:06.261Z,99959.84
2022-07-27T05:12:33.856Z,99966.75
2022-07-27T05:15:01.547Z,99968.47
2022-07-27T05:17:29.154Z,99965.00
2022-07-27T05:19:56.770Z,99965.81
2022-07-27T05:22:25.711Z,99965.78
2022-07-27T05:24:53.331Z,99965.72
2022-07-27T05:27:20.953Z,99974.38
2022-07-27T05:29:49.544Z,99975.19
2022-07-27T05:32:17.288Z,99987.22
2022-07-27T05:34:45.994Z,99991.44
2022-07-27T05:37:13.941Z,99991.31
2022-07-27T05:39:42.901Z,99988.66
2022-07-27T05:42:10.712Z,99986.91
2022-07-27T05:44:38.340Z,99986.84
2022-07-27T05:47:06.564Z,99987.63
2022-07-27T05:49:34.428Z,99984.88
2022-07-27T05:52:02.166Z,99988.28
2022-07-27T05:54:29.769Z,99986.28
2022-07-27T05:56:59.840Z,99997.50
2022-07-27T05:59:28.062Z,99996.44
2022-07-27T06:01:55.646Z,99998.03
2022-07-27T06:04:23.256Z,99992.91
2022-07-27T06:07:08.424Z,100003.81
2022-07-27T06:09:36.075Z,100004.06
2022-07-27T06:12:05.183Z,100002.38
2022-07-27T06:14:32.839Z,100009.25
2022-07-27T06:17:00.575Z,100012.75
2022-07-27T06:19:36.019Z,100010.84
2022-07-27T06:22:04.374Z,100008.88
2022-07-27T06:24:32.020Z,100001.84
2022-07-27T06:26:59.619Z,100001.56
2022-07-27T06:29:28.584Z,99999.47
2022-07-27T06:31:56.276Z,100002.69
2022-07-27T06:34:23.928Z,99993.66
2022-07-27T06:36:52.959Z,100007.38
2022-07-27T06:39:20.933Z,100007.41
2022-07-27T06:41:48.914Z,100019.41
2022-07-27T06:44:16.562Z,100015.59
2022-07-27T06:46:45.610Z,100017.25
2022-07-27T06:49:13.693Z,100019.78
2022-07-27T06:51:41.940Z,100011.09
2022-07-27T06:54:09.575Z,100015.59
2022-07-27T06:56:38.117Z,100014.38
2022-07-27T06:59:05.913Z,100015.09
2022-07-27T07:01:33.666Z,100019.47
2022-07-27T07:04:02.725Z,100022.97
2022-07-27T07:06:30.411Z,100023.69
2022-07-27T07:08:57.980Z,100020.66
2022-07-27T07:11:25.629Z,100021.91
2022-07-27T07:13:53.286Z,100022.34
2022-07-27T07:16:20.957Z,100013.22
2022-07-27T07:18:52.206Z,100015.56
2022-07-27T07:21:21.946Z,100015.50
2022-07-27T07:23:50.144Z,100013.78
2022-07-27T07:26:17.762Z,100010.97
2022-07-27T07:28:45.419Z,100014.25
2022-07-27T07:31:13.079Z,100013.22
2022-07-27T07:33:40.777Z,100016.19
2022-07-27T07:36:13.369Z,100010.03
2022-07-27T07:38:44.014Z,100015.59
2022-07-27T07:41:11.744Z,100012.56
2022-07-27T07:43:39.778Z,100011.22
2022-07-27T07:46:08.534Z,100016.00
2022-07-27T07:48:36.424Z,100011.41
2022-07-27T07:51:04.193Z,100015.41
2022-07-27T07:53:31.811Z,100009.09
2022-07-27T07:56:00.837Z,100013.94
2022-07-27T07:58:28.387Z,100015.44
2022-07-27T08:00:56.178Z,100007.28
2022-07-27T08:03:23.876Z,100000.59
2022-07-27T08:05:51.564Z,100004.47
2022-07-27T08:08:19.165Z,100011.13
2022-07-27T08:10:47.900Z,100014.28
2022-07-27T08:13:21.937Z,100016.91
2022-07-27T08:15:50.559Z,100009.16
2022-07-27T08:18:18.921Z,100008.38
2022-07-27T08:20:46.514Z,100010.66
2022-07-27T08:23:14.177Z,100016.28
2022-07-27T08:28:10.172Z,100007.06
2022-07-27T08:30:39.618Z,100012.16
2022-07-27T08:33:07.322Z,100005.56
2022-07-27T08:35:35.952Z,100007.34
2022-07-27T08:38:05.990Z,100006.78
2022-07-27T08:40:44.238Z,100007.56
2022-07-27T08:43:18.888Z,100007.72
2022-07-27T08:45:55.354Z,100006.88
2022-07-27T08:48:24.853Z,100000.13
2022-07-27T08:50:53.005Z,99994.03
2022-07-27T08:53:22.247Z,100001.84
2022-07-27T08:55:50.113Z,99999.97
2022-07-27T08:58:18.381Z,100005.84
2022-07-27T09:00:48.025Z,100006.41
2022-07-27T09:03:20.517Z,100004.06
2022-07-27T09:05:51.883Z,99994.88
2022-07-27T09:08:23.966Z,99995.47
2022-07-27T09:10:52.024Z,99997.84
2022-07-27T09:13:21.990Z,100004.88
2022-07-27T09:18:40.920Z,100007.84
2022-07-27T09:21:11.187Z,100007.84
2022-07-27T09:23:39.345Z,100006.00
2022-07-27T09:26:29.329Z,100002.31
2022-07-27T09:29:00.781Z,100000.56
2022-07-27T09:31:28.612Z,99998.75
2022-07-27T09:33:59.133Z,100001.81
2022-07-27T09:36:28.778Z,99999.00
2022-07-27T09:39:11.139Z,100000.03
2022-07-27T09:41:45.866Z,100001.84
2022-07-27T09:47:01.985Z,100008.25
2022-07-27T09:49:33.212Z,100003.69
2022-07-27T09:52:03.119Z,100005.69
2022-07-27T09:54:44.213Z,100002.91
2022-07-27T09:57:12.114Z,100006.09
2022-07-27T09:59:39.885Z,100006.72
2022-07-27T10:02:08.191Z,99999.06
2022-07-27T10:04:37.205Z,100007.19
2022-07-27T10:07:09.346Z,99996.66
2022-07-27T10:09:40.385Z,100000.44
2022-07-27T10:12:08.956Z,100002.28
2022-07-27T10:14:36.526Z,99999.25
2022-07-27T10:17:04.842Z,100003.69
2022-07-27T10:19:41.810Z,99995.97
2022-07-27T10:22:09.400Z,100001.38
2022-07-27T10:24:37.431Z,100001.56
2022-07-27T10:27:20.497Z,100003.16
2022-07-27T10:29:48.923Z,99996.28
2022-07-27T10:32:24.680Z,100001.69
2022-07-27T10:34:54.088Z,100005.53
2022-07-27T10:37:26.445Z,100002.09
2022-07-27T10:40:15.974Z,99993.31
2022-07-27T10:42:44.180Z,100006.75
2022-07-27T10:45:13.742Z,100000.69
2022-07-27T10:47:44.788Z,99995.28
2022-07-27T10:50:30.704Z,99993.47
2022-07-27T10:53:01.322Z,99992.69
2022-07-27T10:55:58.768Z,99994.69
2022-07-27T10:58:50.000Z,99999.66
2022-07-27T11:01:19.624Z,99991.41
2022-07-27T11:03:53.220Z,99994.09
2022-07-27T11:06:37.547Z,99987.91
2022-07-27T11:10:00.275Z,99987.66
2022-07-27T11:12:01.293Z,99991.75
2022-07-27T11:14:31.646Z,99989.34
2022-07-27T11:17:33.465Z,99979.44
2022-07-27T11:19:53.408Z,99990.44
2022-07-27T11:22:53.597Z,99991.56
2022-07-27T11:25:19.421Z,99985.13
2022-07-27T11:27:48.517Z,99979.16
2022-07-27T11:30:23.378Z,99977.03
2022-07-27T11:32:51.182Z,99969.88
2022-07-27T11:35:20.397Z,99969.47
2022-07-27T11:38:01.338Z,99973.22
2022-07-27T11:43:33.702Z,99962.19
2022-07-27T11:46:13.268Z,99963.78
2022-07-27T11:49:05.455Z,99965.72
2022-07-27T11:51:34.426Z,99957.66
2022-07-27T11:54:05.960Z,99957.38
2022-07-27T11:56:35.598Z,99963.91
2022-07-27T11:59:06.740Z,99959.56
2022-07-27T12:01:36.408Z,99965.63
2022-07-27T12:04:16.066Z,99960.53
2022-07-27T12:06:46.296Z,99962.84
2022-07-27T12:09:17.768Z,99965.72
2022-07-27T12:11:51.051Z,99963.34
2022-07-27T12:14:19.082Z,99961.53
2022-07-27T12:16:47.203Z,99961.94
2022-07-27T12:19:23.815Z,99951.00
2022-07-27T12:21:55.364Z,99951.88
2022-07-27T12:24:34.902Z,99952.31
2022-07-27T12:27:06.748Z,99958.72
2022-07-27T12:29:54.628Z,99947.22
2022-07-27T12:32:22.875Z,99954.72
2022-07-27T12:34:50.569Z,99958.34
2022-07-27T12:37:18.335Z,99961.41
2022-07-27T12:39:48.600Z,99955.59
2022-07-27T12:42:16.590Z,99950.13
2022-07-27T12:44:46.412Z,99954.47
2022-07-27T12:47:31.493Z,99951.91
2022-07-27T12:50:03.432Z,99946.78
2022-07-27T12:52:31.248Z,99948.28
2022-07-27T12:55:00.315Z,99949.41
2022-07-27T12:57:54.193Z,99951.78
2022-07-27T13:00:18.085Z,99951.00
2022-07-27T13:02:46.610Z,99940.72
2022-07-27T13:05:15.560Z,99944.44
2022-07-27T13:07:45.989Z,99950.44
2022-07-27T13:10:18.237Z,99940.88
2022-07-27T13:12:46.840Z,99943.44
2022-07-27T13:15:15.581Z,99936.06
2022-07-27T13:17:43.716Z,99928.91
2022-07-27T13:20:13.141Z,99933.03
2022-07-27T13:22:41.851Z,99921.94
2022-07-27T13:25:16.116Z,99932.47
2022-07-27T13:27:46.990Z,99928.66
2022-07-27T13:30:16.819Z,99921.22
2022-07-27T13:32:46.478Z,99919.66
2022-07-27T13:35:14.719Z,99913.19
2022-07-27T13:37:42.454Z,99912.13
2022-07-27T13:40:10.738Z,99916.63
2022-07-27T13:42:38.761Z,99908.72
2022-07-27T13:45:10.917Z,99915.56
2022-07-27T13:47:41.044Z,99912.91
2022-07-27T13:50:17.404Z,99910.78
2022-07-27T13:52:46.505Z,99909.41
2022-07-27T13:55:15.050Z,99912.22
2022-07-27T13:57:42.930Z,99920.38
2022-07-27T14:00:13.497Z,99923.72
2022-07-27T14:02:41.980Z,99919.53
2022-07-27T14:05:13.028Z,99913.31
2022-07-27T14:07:42.489Z,99912.44
2022-07-27T14:10:30.174Z,99902.09
2022-07-27T14:12:59.357Z,99910.53
2022-07-27T14:15:28.830Z,99900.50
2022-07-27T14:17:56.421Z,99896.41
2022-07-27T14:20:24.103Z,99892.00
2022-07-27T14:22:51.912Z,99893.97
2022-07-27T14:25:19.569Z,99900.66
2022-07-27T14:27:47.205Z,99898.72
2022-07-27T14:30:20.265Z,99894.91
2022-07-27T14:32:50.315Z,99904.25
2022-07-27T14:35:18.352Z,99898.91
2022-07-27T14:37:46.513Z,99910.59
2022-07-27T14:40:15.335Z,99904.88
2022-07-27T14:42:43.213Z,99891.38
2022-07-27T14:45:12.214Z,99902.28
2022-07-27T14:47:39.887Z,99891.53
2022-07-27T14:50:09.936Z,99904.69
2022-07-27T14:52:37.978Z,99896.06
2022-07-27T14:55:06.379Z,99893.16
2022-07-27T14:57:34.134Z,99890.94
2022-07-27T15:00:06.749Z,99893.81
2022-07-27T15:02:34.599Z,99884.06
2022-07-27T15:05:02.357Z,99881.69
2022-07-27T15:07:31.396Z,99889.31
2022-07-27T15:09:59.092Z,99882.53
2022-07-27T15:12:27.008Z,99877.44
2022-07-27T15:14:55.073Z,99866.84
2022-07-27T15:17:22.749Z,99880.00
2022-07-27T15:19:50.654Z,99871.75
2022-07-27T15:22:18.663Z,99881.91
2022-07-27T15:24:47.732Z,99880.19
2022-07-27T15:27:15.467Z,99871.22
2022-07-27T15:29:43.185Z,99861.00
2022-07-27T15:32:10.793Z,99859.47
2022-07-27T15:34:39.060Z,99857.09
2022-07-27T15:37:07.491Z,99851.22
2022-07-27T15:39:37.386Z,99860.91
2022-07-27T15:42:07.636Z,99861.19
2022-07-27T15:44:36.157Z,99856.28
2022-07-27T15:47:04.107Z,99860.00
2022-07-27T15:49:31.863Z,99856.47
2022-07-27T15:51:59.792Z,99855.31
2022-07-27T15:54:31.516Z,99849.84
2022-07-27T15:57:01.206Z,99852.81
2022-07-27T15:59:30.313Z,99839.19
2022-07-27T16:01:58.624Z,99844.06
2022-07-27T16:04:27.147Z,99842.84
2022-07-27T16:06:54.869Z,99847.28
2022-07-27T16:09:22.546Z,99845.84
2022-07-27T16:11:50.214Z,99842.78
2022-07-27T16:14:17.876Z,99836.72
2022-07-27T16:16:46.932Z,99831.75
2022-07-27T16:19:14.998Z,99838.47
2022-07-27T16:21:54.685Z,99835.44
2022-07-27T16:24:24.455Z,99835.22
2022-07-27T16:26:52.145Z,99823.47
2022-07-27T16:29:19.886Z,99832.31
2022-07-27T16:31:49.117Z,99828.25
2022-07-27T16:34:16.813Z,99822.16
2022-07-27T16:36:44.865Z,99818.81
2022-07-27T16:39:12.703Z,99808.09
2022-07-27T16:41:40.485Z,99812.25
2022-07-27T16:44:08.134Z,99815.28
2022-07-27T16:46:35.895Z,99808.03
2022-07-27T16:49:05.326Z,99809.69
2022-07-27T16:51:33.052Z,99812.06
2022-07-27T16:54:00.805Z,99806.25
2022-07-27T16:56:28.477Z,99808.53
2022-07-27T16:58:56.152Z,99809.63
2022-07-27T17:01:26.460Z,99810.28
2022-07-27T17:03:56.150Z,99820.88
2022-07-27T17:06:28.650Z,99815.41
2022-07-27T17:08:56.469Z,99820.97
2022-07-27T17:11:24.869Z,99820.16
2022-07-27T17:13:59.432Z,99818.81
2022-07-27T17:16:28.035Z,99817.50
2022-07-27T17:18:56.235Z,99816.22
2022-07-27T17:21:25.921Z,99810.09
2022-07-27T17:23:53.585Z,99807.47
2022-07-27T17:26:24.284Z,99813.41
2022-07-27T17:28:53.222Z,99807.19
2022-07-27T17:31:21.882Z,99807.41
2022-07-27T17:33:50.217Z,99811.25
2022-07-27T17:36:18.460Z,99805.31
2022-07-27T17:38:48.240Z,99799.31
2022-07-27T17:41:23.735Z,99810.00
2022-07-27T17:43:52.595Z,99815.41
2022-07-27T17:46:20.477Z,99811.50
2022-07-27T17:48:48.507Z,99806.81
2022-07-27T17:51:16.334Z,99807.28
2022-07-27T17:53:44.445Z,99811.97
2022-07-27T17:56:13.510Z,99802.56
2022-07-27T17:58:42.753Z,99803.28
2022-07-27T18:01:10.556Z,99802.41
2022-07-27T18:03:47.500Z,99798.34
2022-07-27T18:06:15.239Z,99805.09
2022-07-27T18:08:44.778Z,99806.63
2022-07-27T18:11:14.682Z,99810.28
2022-07-27T18:13:42.553Z,99816.28
2022-07-27T18:16:11.990Z,99810.09
2022-07-27T18:18:40.699Z,99816.34
2022-07-27T18:21:08.596Z,99820.94
2022-07-27T18:23:36.603Z,99822.38
2022-07-27T18:26:04.727Z,99822.94
2022-07-27T18:28:39.501Z,99819.44
2022-07-27T18:31:09.532Z,99821.34
2022-07-27T18:33:37.828Z,99827.78
2022-07-27T18:36:06.172Z,99826.00
2022-07-27T18:38:34.071Z,99826.03
2022-07-27T18:41:02.808Z,99829.44
2022-07-27T18:43:30.478Z,99828.75
2022-07-27T18:45:59.626Z,99827.84
2022-07-27T18:48:27.430Z,99825.78
2022-07-27T18:50:55.151Z,99836.38
2022-07-27T18:53:22.846Z,99835.47
2022-07-27T18:55:55.635Z,99837.22
2022-07-27T18:58:24.026Z,99841.63
2022-07-27T19:00:51.670Z,99846.47
2022-07-27T19:03:21.381Z,99863.66
2022-07-27T19:05:50.938Z,99864.69
2022-07-27T19:08:20.705Z,99864.84
2022-07-27T19:10:48.386Z,99879.09
2022-07-27T19:13:16.012Z,99870.22
2022-07-27T19:15:44.782Z,99874.91
2022-07-27T19:18:12.437Z,99878.94
2022-07-27T19:20:41.410Z,99880.41
2022-07-27T19:23:09.146Z,99876.63
2022-07-27T19:25:36.776Z,99880.75
2022-07-27T19:28:05.296Z,99880.00
2022-07-27T19:30:33.251Z,99874.44
2022-07-27T19:33:01.218Z,99882.16
2022-07-27T19:35:29.126Z,99879.34
2022-07-27T19:37:58.356Z,99886.53
2022-07-27T19:43:14.933Z,99897.75
2022-07-27T19:45:43.238Z,99895.47
2022-07-27T19:48:11.752Z,99896.59
2022-07-27T19:50:39.661Z,99896.97
2022-07-27T19:53:09.169Z,99895.84
2022-07-27T19:55:36.857Z,99898.16
2022-07-27T19:58:04.652Z,99912.53
2022-07-27T20:00:32.406Z,99918.16
2022-07-27T20:03:01.202Z,99913.41
2022-07-27T20:05:29.039Z,99918.81
2022-07-27T20:07:56.760Z,99920.81
2022-07-27T20:10:26.179Z,99914.09
2022-07-27T20:12:53.837Z,99915.06
2022-07-27T20:15:22.452Z,99927.63
2022-07-27T20:17:50.626Z,99926.81
2022-07-27T20:20:18.298Z,99928.59
2022-07-27T20:22:46.050Z,99932.28
2022-07-27T20:25:14.799Z,99922.03
2022-07-27T20:27:43.881Z,99923.84
2022-07-27T20:30:14.422Z,99928.38
2022-07-27T20:32:42.044Z,99925.84
2022-07-27T20:35:09.812Z,99923.31
2022-07-27T20:37:38.020Z,99925.25
2022-07-27T20:40:07.442Z,99930.59
2022-07-27T20:42:35.261Z,99918.34
2022-07-27T20:45:11.368Z,99921.19
2022-07-27T20:47:39.454Z,99922.13
2022-07-27T20:50:09.024Z,99930.06
2022-07-27T20:52:36.950Z,99921.50
2022-07-27T20:55:05.365Z,99922.41
2022-07-27T20:57:32.956Z,99921.50
2022-07-27T21:00:00.574Z,99921.50
2022-07-27T21:02:29.590Z,99918.97
2022-07-27T21:04:57.265Z,99931.25
2022-07-27T21:07:26.669Z,99920.88
2022-07-27T21:09:54.282Z,99919.22
2022-07-27T21:12:21.894Z,99925.34
2022-07-27T21:14:49.775Z,99924.53
2022-07-27T21:17:17.469Z,99934.31
2022-07-27T21:19:46.414Z,99929.25
2022-07-27T21:22:14.077Z,99929.44
2022-07-27T21:24:40.917Z,99929.69
2022-07-27T21:27:08.960Z,99931.50
2022-07-27T21:29:36.575Z,99936.66
2022-07-27T21:32:04.442Z,99935.69
2022-07-27T21:34:32.079Z,99935.16
2022-07-27T21:37:01.026Z,99938.59
2022-07-27T21:39:28.920Z,99934.16
2022-07-27T21:42:01.714Z,99929.81
2022-07-27T21:44:30.088Z,99933.22
2022-07-27T21:46:57.939Z,99929.66
2022-07-27T21:49:34.044Z,99929.69
2022-07-27T21:52:03.824Z,99927.97
2022-07-27T21:54:31.457Z,99935.78
2022-07-27T21:56:59.146Z,99934.94
2022-07-27T21:59:26.755Z,99947.09
2022-07-27T22:01:54.402Z,99942.69
2022-07-27T22:04:22.089Z,99943.56
2022-07-27T22:06:49.731Z,99950.66
2022-07-27T22:09:20.031Z,99946.34
2022-07-27T22:11:47.769Z,99946.53
2022-07-27T22:14:16.102Z,99950.88
2022-07-27T22:16:44.248Z,99945.69
2022-07-27T22:19:11.950Z,99951.00
2022-07-27T22:21:39.557Z,99955.44
2022-07-27T22:24:07.694Z,99953.88
2022-07-27T22:26:36.671Z,99953.88
2022-07-27T22:29:04.739Z,99953.19
2022-07-27T22:31:32.468Z,99958.34
2022-07-27T22:34:00.122Z,99963.50
2022-07-27T22:36:27.721Z,99964.34
2022-07-27T22:38:55.694Z,99964.22
2022-07-27T22:41:23.374Z,99958.00
2022-07-27T22:43:53.224Z,99961.38
2022-07-27T22:46:25.309Z,99971.03
2022-07-27T22:48:53.515Z,99967.69
2022-07-27T22:51:21.710Z,99976.50
2022-07-27T22:53:49.315Z,99969.66
2022-07-27T22:56:17.054Z,99975.00
2022-07-27T22:58:44.624Z,99979.28
2022-07-27T23:01:46.546Z,99983.69
2022-07-27T23:04:01.140Z,99981.88
2022-07-27T23:06:28.748Z,99974.09
2022-07-27T23:08:56.648Z,99969.56
2022-07-27T23:11:24.292Z,99966.84
2022-07-27T23:13:51.911Z,99965.13
2022-07-27T23:16:20.974Z,99957.28
2022-07-27T23:18:48.647Z,99960.69
2022-07-27T23:21:16.338Z,99961.66
2022-07-27T23:23:53.706Z,99963.34
2022-07-27T23:26:22.955Z,99960.03
2022-07-27T23:28:54.157Z,99958.44
2022-07-27T23:31:23.787Z,99953.25
2022-07-27T23:33:51.394Z,99967.25
2022-07-27T23:36:19.052Z,99955.16
2022-07-27T23:38:46.800Z,99963.03
2022-07-27T23:41:15.477Z,99953.59
2022-07-27T23:43:44.776Z,99958.06
2022-07-27T23:46:12.576Z,99964.31
2022-07-27T23:48:41.609Z,99957.41
2022-07-27T23:51:09.686Z,99959.13
2022-07-27T23:53:37.295Z,99952.19
2022-07-27T23:56:05.195Z,99950.53
2022-07-27T23:58:32.790Z,99954.88
